PWSweather.com
Personal Weather Stations
Station Observations

MakarauRodneyNZ

Lat: -36.52421, Lon: 174.47572

Elevation: 606

Station Type: Davis VP2

http://kaiparaweather.dynu.net/index.php

High Low Average
Temperature 75.0°F23.9°C 66.7°F19.3°C 70.1°F21.2°C
Dew Point 69.0°F20.6°C 65.8°F18.8°C 66.9°F19.4°C
Winds 8.1 mph 13.0 kmh Calm Calm 3.0 mph NNE4.8 kmh NNE
Wind Gusts 13.8 mph22.2 kmh -- 6.0 mph9.7 kmh
Humidity 97% 79% 90%
Pressure 29.84 in1010.5 mb 29.79 in1008.8 mb -
Precipitation 0.07 in1.8 mm - -
Hour Temp Dew Point Humidity Winds Wind Gusts Pressure Precip Precip Rate Daily Precip Total
12:00 AM 65.6°F18.7°C 63.2°F17.3°C 92% 8.1 mph NNE13.0 kmh NNE 15.0 mph24.1 kmh 29.96 in1014.6 mb - 0.00 in0.0 mm 0.00 in0.0 mm
12:10 AM 65.7°F18.7°C 63.3°F17.4°C 92% 6.9 mph NNE11.1 kmh NNE 8.1 mph13.0 kmh 29.96 in1014.6 mb - 0.00 in0.0 mm 0.00 in0.0 mm
12:20 AM 65.8°F18.8°C 63.4°F17.4°C 92% Calm Calm 2.3 mph3.7 kmh 29.97 in1014.9 mb - 0.00 in0.0 mm 0.00 in0.0 mm
12:30 AM 65.7°F18.7°C 63.3°F17.4°C 92% 2.3 mph NNE3.7 kmh NNE 1.2 mph1.9 kmh 29.96 in1014.6 mb - 0.00 in0.0 mm 0.00 in0.0 mm
12:40 AM 65.7°F18.7°C 63.3°F17.4°C 92% Calm Calm -- 29.96 in1014.6 mb - 0.00 in0.0 mm 0.00 in0.0 mm
12:50 AM 65.8°F18.8°C 63.7°F17.6°C 93% 1.2 mph N1.9 kmh N 1.2 mph1.9 kmh 29.96 in1014.6 mb - 0.00 in0.0 mm 0.00 in0.0 mm
01:00 AM 65.8°F18.8°C 63.7°F17.6°C 93% Calm Calm -- 29.96 in1014.6 mb - 0.00 in0.0 mm 0.00 in0.0 mm
01:10 AM 65.7°F18.7°C 63.7°F17.6°C 93% 3.5 mph NNE5.6 kmh NNE 9.2 mph14.8 kmh 29.95 in1014.2 mb - 0.00 in0.0 mm 0.00 in0.0 mm
01:20 AM 65.7°F18.7°C 63.9°F17.7°C 94% Calm Calm 1.2 mph1.9 kmh 29.95 in1014.2 mb - 0.01 in0.3 mm 0.01 in0.3 mm
01:30 AM 65.3°F18.5°C 63.5°F17.5°C 94% Calm Calm 1.2 mph1.9 kmh 29.95 in1014.2 mb - 0.00 in0.0 mm 0.01 in0.3 mm
01:40 AM 65.0°F18.3°C 63.2°F17.3°C 94% Calm Calm -- 29.94 in1013.9 mb - 0.00 in0.0 mm 0.01 in0.3 mm
01:50 AM 64.8°F18.2°C 63.3°F17.4°C 95% Calm Calm -- 29.94 in1013.9 mb - 0.00 in0.0 mm 0.01 in0.3 mm
02:00 AM 64.5°F18.1°C 63.0°F17.2°C 95% 1.2 mph NNE1.9 kmh NNE 4.6 mph7.4 kmh 29.93 in1013.5 mb - 0.00 in0.0 mm 0.01 in0.3 mm
02:10 AM 64.3°F17.9°C 62.8°F17.1°C 95% Calm Calm 3.5 mph5.6 kmh 29.94 in1013.9 mb - 0.00 in0.0 mm 0.01 in0.3 mm
02:20 AM 64.2°F17.9°C 62.7°F17.1°C 95% 2.3 mph NNE3.7 kmh NNE 4.6 mph7.4 kmh 29.94 in1013.9 mb - 0.00 in0.0 mm 0.01 in0.3 mm
02:30 AM 63.9°F17.7°C 62.5°F16.9°C 95% 1.2 mph NNE1.9 kmh NNE 3.5 mph5.6 kmh 29.94 in1013.9 mb - 0.00 in0.0 mm 0.01 in0.3 mm
02:40 AM 63.9°F17.7°C 62.7°F17.1°C 96% 2.3 mph NE3.7 kmh NE 8.1 mph13.0 kmh 29.93 in1013.5 mb - 0.00 in0.0 mm 0.01 in0.3 mm
02:50 AM 63.9°F17.7°C 62.7°F17.1°C 96% 1.2 mph NNE1.9 kmh NNE 3.5 mph5.6 kmh 29.93 in1013.5 mb - 0.00 in0.0 mm 0.01 in0.3 mm
03:00 AM 63.8°F17.7°C 62.6°F17.0°C 96% 4.6 mph NNE7.4 kmh NNE 9.2 mph14.8 kmh 29.93 in1013.5 mb - 0.00 in0.0 mm 0.01 in0.3 mm
03:10 AM 63.9°F17.7°C 62.7°F17.1°C 96% 4.6 mph NNE7.4 kmh NNE 6.9 mph11.1 kmh 29.93 in1013.5 mb - 0.00 in0.0 mm 0.01 in0.3 mm
03:20 AM 63.9°F17.7°C 62.7°F17.1°C 96% 3.5 mph NNE5.6 kmh NNE 4.6 mph7.4 kmh 29.92 in1013.2 mb - 0.00 in0.0 mm 0.01 in0.3 mm
03:30 AM 64.0°F17.8°C 62.8°F17.1°C 96% 6.9 mph NNE11.1 kmh NNE 9.2 mph14.8 kmh 29.92 in1013.2 mb - 0.00 in0.0 mm 0.01 in0.3 mm
03:40 AM 64.0°F17.8°C 62.8°F17.1°C 96% 5.8 mph NNE9.3 kmh NNE 8.1 mph13.0 kmh 29.91 in1012.9 mb - 0.00 in0.0 mm 0.01 in0.3 mm
03:50 AM 64.1°F17.8°C 62.9°F17.2°C 96% 5.8 mph NNE9.3 kmh NNE 8.1 mph13.0 kmh 29.91 in1012.9 mb - 0.00 in0.0 mm 0.01 in0.3 mm
04:00 AM 64.3°F17.9°C 63.1°F17.3°C 96% 5.8 mph NNE9.3 kmh NNE 8.1 mph13.0 kmh 29.90 in1012.5 mb - 0.00 in0.0 mm 0.01 in0.3 mm
04:10 AM 64.4°F18.0°C 63.3°F17.4°C 96% 6.9 mph NNE11.1 kmh NNE 11.5 mph18.5 kmh 29.90 in1012.5 mb - 0.00 in0.0 mm 0.01 in0.3 mm
04:20 AM 64.6°F18.1°C 63.4°F17.4°C 96% 5.8 mph NNE9.3 kmh NNE 11.5 mph18.5 kmh 29.90 in1012.5 mb - 0.00 in0.0 mm 0.01 in0.3 mm
04:30 AM 64.8°F18.2°C 63.6°F17.6°C 96% 3.5 mph NNE5.6 kmh NNE 11.5 mph18.5 kmh 29.90 in1012.5 mb - 0.00 in0.0 mm 0.01 in0.3 mm
04:40 AM 65.0°F18.3°C 63.8°F17.7°C 96% Calm Calm 1.2 mph1.9 kmh 29.90 in1012.5 mb - 0.00 in0.0 mm 0.01 in0.3 mm
04:50 AM 65.1°F18.4°C 63.9°F17.7°C 96% 5.8 mph NNE9.3 kmh NNE 10.4 mph16.7 kmh 29.90 in1012.5 mb - 0.00 in0.0 mm 0.01 in0.3 mm
05:00 AM 65.2°F18.4°C 64.1°F17.8°C 96% 1.2 mph NNE1.9 kmh NNE 2.3 mph3.7 kmh 29.90 in1012.5 mb - 0.00 in0.0 mm 0.01 in0.3 mm
05:10 AM 65.4°F18.6°C 64.2°F17.9°C 96% Calm Calm 1.2 mph1.9 kmh 29.91 in1012.9 mb - 0.01 in0.3 mm 0.02 in0.5 mm
05:20 AM 65.2°F18.4°C 64.0°F17.8°C 96% Calm Calm 1.2 mph1.9 kmh 29.90 in1012.5 mb - 0.00 in0.0 mm 0.02 in0.5 mm
05:30 AM 64.8°F18.2°C 63.6°F17.6°C 96% Calm Calm 1.2 mph1.9 kmh 29.91 in1012.9 mb - 0.00 in0.0 mm 0.02 in0.5 mm
05:40 AM 64.6°F18.1°C 63.1°F17.3°C 95% 1.2 mph NNE1.9 kmh NNE 2.3 mph3.7 kmh 29.91 in1012.9 mb - 0.00 in0.0 mm 0.02 in0.5 mm
05:50 AM 64.5°F18.1°C 63.0°F17.2°C 95% 5.8 mph NNE9.3 kmh NNE 8.1 mph13.0 kmh 29.91 in1012.9 mb - 0.00 in0.0 mm 0.02 in0.5 mm
06:00 AM 64.4°F18.0°C 63.0°F17.2°C 95% Calm Calm 1.2 mph1.9 kmh 29.90 in1012.5 mb - 0.00 in0.0 mm 0.02 in0.5 mm
06:10 AM 64.5°F18.1°C 63.0°F17.2°C 95% 1.2 mph NNE1.9 kmh NNE 9.2 mph14.8 kmh 29.90 in1012.5 mb - 0.00 in0.0 mm 0.02 in0.5 mm
06:20 AM 64.4°F18.0°C 62.9°F17.2°C 95% Calm Calm 2.3 mph3.7 kmh 29.90 in1012.5 mb - 0.00 in0.0 mm 0.02 in0.5 mm
06:30 AM 64.5°F18.1°C 63.0°F17.2°C 95% 2.3 mph NNE3.7 kmh NNE 12.7 mph20.4 kmh 29.90 in1012.5 mb - 0.00 in0.0 mm 0.02 in0.5 mm
06:40 AM 64.7°F18.2°C 63.2°F17.3°C 95% 3.5 mph NE5.6 kmh NE 3.5 mph5.6 kmh 29.89 in1012.2 mb - 0.00 in0.0 mm 0.02 in0.5 mm
06:50 AM 64.8°F18.2°C 63.3°F17.4°C 95% 8.1 mph NNE13.0 kmh NNE 15.0 mph24.1 kmh 29.90 in1012.5 mb - 0.00 in0.0 mm 0.02 in0.5 mm
07:00 AM 64.8°F18.2°C 63.3°F17.4°C 95% 6.9 mph NNE11.1 kmh NNE 9.2 mph14.8 kmh 29.90 in1012.5 mb - 0.00 in0.0 mm 0.02 in0.5 mm
07:10 AM 64.9°F18.3°C 63.4°F17.4°C 95% 6.9 mph NNE11.1 kmh NNE 11.5 mph18.5 kmh 29.89 in1012.2 mb - 0.00 in0.0 mm 0.02 in0.5 mm
07:20 AM 65.0°F18.3°C 63.2°F17.3°C 94% 11.5 mph NNE18.5 kmh NNE 13.8 mph22.2 kmh 29.90 in1012.5 mb - 0.00 in0.0 mm 0.02 in0.5 mm
07:30 AM 65.3°F18.5°C 63.8°F17.7°C 95% 6.9 mph NNE11.1 kmh NNE 9.2 mph14.8 kmh 29.90 in1012.5 mb - 0.00 in0.0 mm 0.02 in0.5 mm
07:40 AM 65.5°F18.6°C 64.0°F17.8°C 95% Calm Calm 1.2 mph1.9 kmh 29.90 in1012.5 mb - 0.00 in0.0 mm 0.02 in0.5 mm
07:50 AM 65.6°F18.7°C 64.4°F18.0°C 96% 1.2 mph NNE1.9 kmh NNE 2.3 mph3.7 kmh 29.89 in1012.2 mb - 0.00 in0.0 mm 0.02 in0.5 mm
08:00 AM 65.7°F18.7°C 64.5°F18.1°C 96% 6.9 mph NNE11.1 kmh NNE 8.1 mph13.0 kmh 29.89 in1012.2 mb - 0.00 in0.0 mm 0.02 in0.5 mm
08:10 AM 66.0°F18.9°C 64.8°F18.2°C 96% 6.9 mph NNE11.1 kmh NNE 9.2 mph14.8 kmh 29.89 in1012.2 mb - 0.00 in0.0 mm 0.02 in0.5 mm
08:20 AM 66.3°F19.1°C 65.1°F18.4°C 96% 8.1 mph NNE13.0 kmh NNE 11.5 mph18.5 kmh 29.89 in1012.2 mb - 0.00 in0.0 mm 0.02 in0.5 mm
08:30 AM 66.7°F19.3°C 65.5°F18.6°C 96% 1.2 mph NNE1.9 kmh NNE 2.3 mph3.7 kmh 29.88 in1011.9 mb - 0.00 in0.0 mm 0.02 in0.5 mm
08:40 AM 67.2°F19.6°C 65.7°F18.7°C 95% 6.9 mph NNE11.1 kmh NNE 12.7 mph20.4 kmh 29.88 in1011.9 mb - 0.00 in0.0 mm 0.02 in0.5 mm
08:50 AM 67.8°F19.9°C 66.0°F18.9°C 94% 5.8 mph NNE9.3 kmh NNE 9.2 mph14.8 kmh 29.88 in1011.9 mb - 0.00 in0.0 mm 0.02 in0.5 mm
09:00 AM 68.1°F20.1°C 66.0°F18.9°C 93% 1.2 mph NNE1.9 kmh NNE 1.2 mph1.9 kmh 29.88 in1011.9 mb - 0.00 in0.0 mm 0.02 in0.5 mm
09:10 AM 68.5°F20.3°C 66.4°F19.1°C 93% 3.5 mph NNE5.6 kmh NNE 8.1 mph13.0 kmh 29.88 in1011.9 mb - 0.00 in0.0 mm 0.02 in0.5 mm
09:20 AM 69.0°F20.6°C 66.6°F19.2°C 92% 1.2 mph NNE1.9 kmh NNE 4.6 mph7.4 kmh 29.88 in1011.9 mb - 0.00 in0.0 mm 0.02 in0.5 mm
09:30 AM 69.4°F20.8°C 66.3°F19.1°C 90% 5.8 mph NNE9.3 kmh NNE 11.5 mph18.5 kmh 29.88 in1011.9 mb - 0.00 in0.0 mm 0.02 in0.5 mm
09:40 AM 69.7°F20.9°C 66.6°F19.2°C 90% 6.9 mph NNE11.1 kmh NNE 9.2 mph14.8 kmh 29.88 in1011.9 mb - 0.00 in0.0 mm 0.02 in0.5 mm
09:50 AM 69.9°F21.1°C 66.5°F19.2°C 89% 5.8 mph NNE9.3 kmh NNE 9.2 mph14.8 kmh 29.88 in1011.9 mb - 0.00 in0.0 mm 0.02 in0.5 mm
10:00 AM 69.9°F21.1°C 66.8°F19.3°C 90% 5.8 mph NNE9.3 kmh NNE 9.2 mph14.8 kmh 29.88 in1011.9 mb - 0.00 in0.0 mm 0.02 in0.5 mm
10:10 AM 70.0°F21.1°C 66.9°F19.4°C 90% 5.8 mph NNE9.3 kmh NNE 11.5 mph18.5 kmh 29.88 in1011.9 mb - 0.00 in0.0 mm 0.02 in0.5 mm
10:20 AM 71.4°F21.9°C 68.3°F20.2°C 90% 2.3 mph NNE3.7 kmh NNE 11.5 mph18.5 kmh 29.88 in1011.9 mb - 0.00 in0.0 mm 0.02 in0.5 mm
10:30 AM 72.5°F22.5°C 68.1°F20.1°C 86% 5.8 mph NNE9.3 kmh NNE 11.5 mph18.5 kmh 29.87 in1011.5 mb - 0.00 in0.0 mm 0.02 in0.5 mm
10:40 AM 73.3°F22.9°C 68.5°F20.3°C 85% 5.8 mph NNE9.3 kmh NNE 11.5 mph18.5 kmh 29.86 in1011.2 mb - 0.00 in0.0 mm 0.02 in0.5 mm
10:50 AM 74.6°F23.7°C 68.4°F20.2°C 81% 5.8 mph NNE9.3 kmh NNE 9.2 mph14.8 kmh 29.86 in1011.2 mb - 0.00 in0.0 mm 0.02 in0.5 mm
11:00 AM 76.1°F24.5°C 68.8°F20.4°C 78% 9.2 mph NNE14.8 kmh NNE 11.5 mph18.5 kmh 29.86 in1011.2 mb - 0.00 in0.0 mm 0.02 in0.5 mm
11:10 AM 76.6°F24.8°C 68.1°F20.1°C 75% 8.1 mph NNE13.0 kmh NNE 11.5 mph18.5 kmh 29.85 in1010.8 mb - 0.00 in0.0 mm 0.02 in0.5 mm
11:20 AM 76.5°F24.7°C 68.3°F20.2°C 76% 9.2 mph NNE14.8 kmh NNE 12.7 mph20.4 kmh 29.85 in1010.8 mb - 0.00 in0.0 mm 0.02 in0.5 mm
11:30 AM 76.3°F24.6°C 68.9°F20.5°C 78% 6.9 mph N11.1 kmh N 12.7 mph20.4 kmh 29.84 in1010.5 mb - 0.00 in0.0 mm 0.02 in0.5 mm
11:40 AM 75.8°F24.3°C 68.0°F20.0°C 77% 6.9 mph NNE11.1 kmh NNE 15.0 mph24.1 kmh 29.84 in1010.5 mb - 0.00 in0.0 mm 0.02 in0.5 mm
11:50 AM 75.0°F23.9°C 68.4°F20.2°C 80% 2.3 mph NNE3.7 kmh NNE 6.9 mph11.1 kmh 29.84 in1010.5 mb - 0.00 in0.0 mm 0.02 in0.5 mm
12:00 PM 74.1°F23.4°C 68.2°F20.1°C 82% 3.5 mph NNE5.6 kmh NNE 10.4 mph16.7 kmh 29.84 in1010.5 mb - 0.00 in0.0 mm 0.02 in0.5 mm
12:10 PM 72.8°F22.7°C 68.3°F20.2°C 86% 3.5 mph NNE5.6 kmh NNE 2.3 mph3.7 kmh 29.84 in1010.5 mb - 0.00 in0.0 mm 0.02 in0.5 mm
12:20 PM 73.4°F23.0°C 68.3°F20.2°C 84% 2.3 mph E3.7 kmh E 2.3 mph3.7 kmh 29.84 in1010.5 mb - 0.00 in0.0 mm 0.02 in0.5 mm
12:30 PM 74.0°F23.3°C 68.9°F20.5°C 84% 5.8 mph NE9.3 kmh NE 12.7 mph20.4 kmh 29.84 in1010.5 mb - 0.00 in0.0 mm 0.02 in0.5 mm
12:40 PM 74.4°F23.6°C 68.9°F20.5°C 83% 1.2 mph NNE1.9 kmh NNE 2.3 mph3.7 kmh 29.84 in1010.5 mb - 0.00 in0.0 mm 0.02 in0.5 mm
12:50 PM 74.5°F23.6°C 68.6°F20.3°C 82% 1.2 mph NE1.9 kmh NE 2.3 mph3.7 kmh 29.84 in1010.5 mb - 0.00 in0.0 mm 0.02 in0.5 mm
01:00 PM 74.3°F23.5°C 68.4°F20.2°C 82% Calm Calm 3.5 mph5.6 kmh 29.84 in1010.5 mb - 0.00 in0.0 mm 0.02 in0.5 mm
01:10 PM 74.8°F23.8°C 68.2°F20.1°C 80% 2.3 mph NNE3.7 kmh NNE 3.5 mph5.6 kmh 29.83 in1010.2 mb - 0.00 in0.0 mm 0.02 in0.5 mm
01:20 PM 74.4°F23.6°C 68.2°F20.1°C 81% 4.6 mph NNE7.4 kmh NNE 10.4 mph16.7 kmh 29.83 in1010.2 mb - 0.00 in0.0 mm 0.02 in0.5 mm
01:30 PM 74.5°F23.6°C 68.0°F20.0°C 80% 1.2 mph NNE1.9 kmh NNE 3.5 mph5.6 kmh 29.83 in1010.2 mb - 0.00 in0.0 mm 0.02 in0.5 mm
01:40 PM 75.0°F23.9°C 68.0°F20.0°C 79% 1.2 mph NNE1.9 kmh NNE 3.5 mph5.6 kmh 29.83 in1010.2 mb - 0.00 in0.0 mm 0.02 in0.5 mm
01:50 PM 73.5°F23.1°C 67.7°F19.8°C 82% 5.8 mph NNE9.3 kmh NNE 12.7 mph20.4 kmh 29.83 in1010.2 mb - 0.00 in0.0 mm 0.02 in0.5 mm
02:00 PM 72.6°F22.6°C 68.2°F20.1°C 86% 1.2 mph NNE1.9 kmh NNE 3.5 mph5.6 kmh 29.82 in1009.8 mb - 0.00 in0.0 mm 0.02 in0.5 mm
02:10 PM 72.9°F22.7°C 67.4°F19.7°C 83% 8.1 mph NNE13.0 kmh NNE 13.8 mph22.2 kmh 29.82 in1009.8 mb - 0.00 in0.0 mm 0.02 in0.5 mm
02:20 PM 73.7°F23.2°C 67.9°F19.9°C 82% 1.2 mph NNE1.9 kmh NNE 3.5 mph5.6 kmh 29.82 in1009.8 mb - 0.00 in0.0 mm 0.02 in0.5 mm
02:30 PM 74.6°F23.7°C 68.1°F20.1°C 80% 2.3 mph NNE3.7 kmh NNE 3.5 mph5.6 kmh 29.81 in1009.5 mb - 0.00 in0.0 mm 0.02 in0.5 mm
02:40 PM 74.8°F23.8°C 67.8°F19.9°C 79% 1.2 mph NNE1.9 kmh NNE 3.5 mph5.6 kmh 29.81 in1009.5 mb - 0.00 in0.0 mm 0.02 in0.5 mm
02:50 PM 73.9°F23.3°C 68.4°F20.2°C 83% 1.2 mph NE1.9 kmh NE -- 29.81 in1009.5 mb - 0.00 in0.0 mm 0.02 in0.5 mm
03:00 PM 72.6°F22.6°C 68.5°F20.3°C 87% Calm Calm 4.6 mph7.4 kmh 29.81 in1009.5 mb - 0.00 in0.0 mm 0.02 in0.5 mm
03:10 PM 72.4°F22.4°C 69.0°F20.6°C 89% 1.2 mph NE1.9 kmh NE 3.5 mph5.6 kmh 29.81 in1009.5 mb - 0.00 in0.0 mm 0.02 in0.5 mm
03:20 PM 71.6°F22.0°C 67.5°F19.7°C 87% 5.8 mph NNE9.3 kmh NNE 11.5 mph18.5 kmh 29.81 in1009.5 mb - 0.00 in0.0 mm 0.02 in0.5 mm
03:30 PM 71.3°F21.8°C 67.3°F19.6°C 87% 6.9 mph NNE11.1 kmh NNE 10.4 mph16.7 kmh 29.81 in1009.5 mb - 0.00 in0.0 mm 0.02 in0.5 mm
03:40 PM 71.2°F21.8°C 67.1°F19.5°C 87% 6.9 mph NNE11.1 kmh NNE 13.8 mph22.2 kmh 29.80 in1009.1 mb - 0.00 in0.0 mm 0.02 in0.5 mm
03:50 PM 70.9°F21.6°C 67.2°F19.6°C 88% 8.1 mph NNE13.0 kmh NNE 11.5 mph18.5 kmh 29.81 in1009.5 mb - 0.00 in0.0 mm 0.02 in0.5 mm
04:00 PM 70.4°F21.3°C 67.3°F19.6°C 90% 8.1 mph NNE13.0 kmh NNE 10.4 mph16.7 kmh 29.80 in1009.1 mb - 0.00 in0.0 mm 0.02 in0.5 mm
04:10 PM 69.9°F21.1°C 66.5°F19.2°C 89% 1.2 mph NNE1.9 kmh NNE 3.5 mph5.6 kmh 29.80 in1009.1 mb - 0.00 in0.0 mm 0.02 in0.5 mm
04:20 PM 70.2°F21.2°C 66.4°F19.1°C 88% 1.2 mph NNE1.9 kmh NNE 3.5 mph5.6 kmh 29.80 in1009.1 mb - 0.00 in0.0 mm 0.02 in0.5 mm
04:30 PM 70.6°F21.4°C 66.5°F19.2°C 87% 2.3 mph N3.7 kmh N 4.6 mph7.4 kmh 29.80 in1009.1 mb - 0.00 in0.0 mm 0.02 in0.5 mm
04:40 PM 70.5°F21.4°C 66.4°F19.1°C 87% 4.6 mph NNE7.4 kmh NNE 9.2 mph14.8 kmh 29.79 in1008.8 mb - 0.00 in0.0 mm 0.02 in0.5 mm
04:50 PM 70.5°F21.4°C 66.4°F19.1°C 87% Calm Calm 3.5 mph5.6 kmh 29.79 in1008.8 mb - 0.00 in0.0 mm 0.02 in0.5 mm
05:00 PM 70.5°F21.4°C 66.4°F19.1°C 87% 2.3 mph NNE3.7 kmh NNE 4.6 mph7.4 kmh 29.80 in1009.1 mb - 0.00 in0.0 mm 0.02 in0.5 mm
05:10 PM 70.4°F21.3°C 66.3°F19.1°C 87% 3.5 mph NNE5.6 kmh NNE 11.5 mph18.5 kmh 29.79 in1008.8 mb - 0.00 in0.0 mm 0.02 in0.5 mm
05:20 PM 70.0°F21.1°C 66.3°F19.1°C 88% 1.2 mph NNE1.9 kmh NNE 3.5 mph5.6 kmh 29.80 in1009.1 mb - 0.00 in0.0 mm 0.02 in0.5 mm
05:30 PM 69.6°F20.9°C 66.5°F19.2°C 90% 2.3 mph NNE3.7 kmh NNE 4.6 mph7.4 kmh 29.80 in1009.1 mb - 0.00 in0.0 mm 0.02 in0.5 mm
05:40 PM 69.2°F20.7°C 66.1°F18.9°C 90% Calm Calm 1.2 mph1.9 kmh 29.80 in1009.1 mb - 0.00 in0.0 mm 0.02 in0.5 mm
05:50 PM 69.0°F20.6°C 66.3°F19.1°C 91% Calm Calm 3.5 mph5.6 kmh 29.80 in1009.1 mb - 0.00 in0.0 mm 0.02 in0.5 mm
06:00 PM 68.9°F20.5°C 66.2°F19.0°C 91% 1.2 mph N1.9 kmh N 3.5 mph5.6 kmh 29.80 in1009.1 mb - 0.00 in0.0 mm 0.02 in0.5 mm
06:10 PM 68.9°F20.5°C 66.1°F18.9°C 91% Calm Calm 3.5 mph5.6 kmh 29.80 in1009.1 mb - 0.00 in0.0 mm 0.02 in0.5 mm
06:20 PM 68.8°F20.4°C 66.1°F18.9°C 91% 1.2 mph N1.9 kmh N 3.5 mph5.6 kmh 29.80 in1009.1 mb - 0.00 in0.0 mm 0.02 in0.5 mm
06:30 PM 68.7°F20.4°C 66.0°F18.9°C 91% 2.3 mph NNE3.7 kmh NNE 3.5 mph5.6 kmh 29.80 in1009.1 mb - 0.00 in0.0 mm 0.02 in0.5 mm
06:40 PM 68.7°F20.4°C 66.3°F19.1°C 92% 1.2 mph NNE1.9 kmh NNE 3.5 mph5.6 kmh 29.80 in1009.1 mb - 0.00 in0.0 mm 0.02 in0.5 mm
06:50 PM 68.6°F20.3°C 66.1°F18.9°C 92% 2.3 mph NNE3.7 kmh NNE 4.6 mph7.4 kmh 29.81 in1009.5 mb - 0.00 in0.0 mm 0.02 in0.5 mm
07:00 PM 68.4°F20.2°C 66.3°F19.1°C 93% 2.3 mph NNE3.7 kmh NNE 4.6 mph7.4 kmh 29.80 in1009.1 mb - 0.00 in0.0 mm 0.02 in0.5 mm
07:10 PM 68.2°F20.1°C 66.1°F18.9°C 93% 2.3 mph NE3.7 kmh NE 3.5 mph5.6 kmh 29.81 in1009.5 mb - 0.00 in0.0 mm 0.02 in0.5 mm
07:20 PM 68.2°F20.1°C 66.1°F18.9°C 93% 3.5 mph NNE5.6 kmh NNE 6.9 mph11.1 kmh 29.81 in1009.5 mb - 0.00 in0.0 mm 0.02 in0.5 mm
07:30 PM 68.1°F20.1°C 66.0°F18.9°C 93% 1.2 mph NNE1.9 kmh NNE 6.9 mph11.1 kmh 29.81 in1009.5 mb - 0.00 in0.0 mm 0.02 in0.5 mm
07:40 PM 68.1°F20.1°C 66.0°F18.9°C 93% 3.5 mph E5.6 kmh E 4.6 mph7.4 kmh 29.81 in1009.5 mb - 0.00 in0.0 mm 0.02 in0.5 mm
07:50 PM 68.1°F20.1°C 66.0°F18.9°C 93% 2.3 mph N3.7 kmh N 4.6 mph7.4 kmh 29.81 in1009.5 mb - 0.00 in0.0 mm 0.02 in0.5 mm
08:00 PM 68.2°F20.1°C 66.4°F19.1°C 94% 3.5 mph NNE5.6 kmh NNE 4.6 mph7.4 kmh 29.81 in1009.5 mb - 0.01 in0.3 mm 0.02 in0.5 mm
08:10 PM 68.2°F20.1°C 66.4°F19.1°C 94% 2.3 mph NNE3.7 kmh NNE 8.1 mph13.0 kmh 29.81 in1009.5 mb - 0.01 in0.3 mm 0.02 in0.5 mm
08:20 PM 68.1°F20.1°C 66.3°F19.1°C 94% 1.2 mph NNE1.9 kmh NNE 3.5 mph5.6 kmh 29.82 in1009.8 mb - 0.00 in0.0 mm 0.02 in0.5 mm
08:30 PM 68.0°F20.0°C 66.5°F19.2°C 95% 2.3 mph NNE3.7 kmh NNE 9.2 mph14.8 kmh 29.82 in1009.8 mb - 0.00 in0.0 mm 0.02 in0.5 mm
08:40 PM 67.9°F19.9°C 66.4°F19.1°C 95% 1.2 mph NNE1.9 kmh NNE 3.5 mph5.6 kmh 29.82 in1009.8 mb - 0.00 in0.0 mm 0.02 in0.5 mm
08:50 PM 67.9°F19.9°C 66.4°F19.1°C 95% 2.3 mph NNE3.7 kmh NNE 4.6 mph7.4 kmh 29.83 in1010.2 mb - 0.00 in0.0 mm 0.02 in0.5 mm
09:00 PM 67.8°F19.9°C 66.4°F19.1°C 95% 1.2 mph NNE1.9 kmh NNE 6.9 mph11.1 kmh 29.83 in1010.2 mb - 0.00 in0.0 mm 0.02 in0.5 mm
09:10 PM 67.7°F19.8°C 66.2°F19.0°C 95% 3.5 mph NNE5.6 kmh NNE 3.5 mph5.6 kmh 29.82 in1009.8 mb - 0.00 in0.0 mm 0.02 in0.5 mm
09:20 PM 67.7°F19.8°C 66.2°F19.0°C 95% 3.5 mph NNE5.6 kmh NNE 4.6 mph7.4 kmh 29.83 in1010.2 mb - 0.01 in0.3 mm 0.03 in0.8 mm
09:30 PM 67.8°F19.9°C 66.3°F19.1°C 95% 1.2 mph NNE1.9 kmh NNE 3.5 mph5.6 kmh 29.83 in1010.2 mb - 0.00 in0.0 mm 0.03 in0.8 mm
09:40 PM 67.6°F19.8°C 66.4°F19.1°C 96% 2.3 mph NNE3.7 kmh NNE 5.8 mph9.3 kmh 29.83 in1010.2 mb - 0.00 in0.0 mm 0.03 in0.8 mm
09:50 PM 67.4°F19.7°C 65.9°F18.8°C 95% 3.5 mph NNE5.6 kmh NNE 6.9 mph11.1 kmh 29.83 in1010.2 mb - 0.00 in0.0 mm 0.03 in0.8 mm
10:00 PM 67.1°F19.5°C 65.9°F18.8°C 96% 4.6 mph NNE7.4 kmh NNE 8.1 mph13.0 kmh 29.83 in1010.2 mb - 0.00 in0.0 mm 0.03 in0.8 mm
10:10 PM 67.1°F19.5°C 65.9°F18.8°C 96% 2.3 mph NNE3.7 kmh NNE 3.5 mph5.6 kmh 29.83 in1010.2 mb - 0.00 in0.0 mm 0.03 in0.8 mm
10:20 PM 67.1°F19.5°C 65.9°F18.8°C 96% 3.5 mph NNE5.6 kmh NNE 4.6 mph7.4 kmh 29.83 in1010.2 mb - 0.00 in0.0 mm 0.03 in0.8 mm
10:30 PM 67.1°F19.5°C 66.0°F18.9°C 96% 3.5 mph NNE5.6 kmh NNE 4.6 mph7.4 kmh 29.83 in1010.2 mb - 0.00 in0.0 mm 0.03 in0.8 mm
10:40 PM 67.3°F19.6°C 66.1°F18.9°C 96% 3.5 mph NNE5.6 kmh NNE 4.6 mph7.4 kmh 29.83 in1010.2 mb - 0.04 in1.0 mm 0.07 in1.8 mm
10:50 PM 67.4°F19.7°C 66.2°F19.0°C 96% 1.2 mph NNE1.9 kmh NNE 2.3 mph3.7 kmh 29.83 in1010.2 mb - 0.00 in0.0 mm 0.07 in1.8 mm
11:00 PM 67.4°F19.7°C 66.2°F19.0°C 96% 4.6 mph NNE7.4 kmh NNE 8.1 mph13.0 kmh 29.83 in1010.2 mb - 0.00 in0.0 mm 0.09 in2.3 mm
11:10 PM 67.4°F19.7°C 66.2°F19.0°C 96% 4.6 mph NNE7.4 kmh NNE 6.9 mph11.1 kmh 29.83 in1010.2 mb - 0.00 in0.0 mm 0.09 in2.3 mm
11:20 PM 67.2°F19.6°C 66.3°F19.1°C 97% 4.6 mph NNE7.4 kmh NNE 6.9 mph11.1 kmh 29.84 in1010.5 mb - 0.00 in0.0 mm 0.09 in2.3 mm
11:30 PM 67.1°F19.5°C 66.2°F19.0°C 97% 5.8 mph NNE9.3 kmh NNE 8.1 mph13.0 kmh 29.84 in1010.5 mb - 0.00 in0.0 mm 0.09 in2.3 mm
11:40 PM 67.0°F19.4°C 66.1°F18.9°C 97% 6.9 mph NNE11.1 kmh NNE 11.5 mph18.5 kmh 29.84 in1010.5 mb - 0.00 in0.0 mm 0.09 in2.3 mm
11:50 PM 66.7°F19.3°C 65.8°F18.8°C 97% 4.6 mph NNE7.4 kmh NNE 6.9 mph11.1 kmh 29.83 in1010.2 mb - 0.00 in0.0 mm 0.09 in2.3 mm